createdAt,value
2019-04-06T00:00:45.086Z,21.90
2019-04-06T00:02:51.966Z,22.20
2019-04-06T00:04:58.906Z,19.80
2019-04-06T00:07:07.240Z,21.20
2019-04-06T00:09:14.426Z,19.70
2019-04-06T00:11:24.251Z,21.90
2019-04-06T00:13:32.520Z,21.07
2019-04-06T00:15:40.481Z,22.23
2019-04-06T00:17:48.633Z,26.13
2019-04-06T00:19:55.315Z,17.40
2019-04-06T00:22:02.070Z,22.60
2019-04-06T00:24:08.888Z,26.17
2019-04-06T00:26:15.605Z,21.03
2019-04-06T00:28:22.836Z,23.33
2019-04-06T00:30:31.214Z,22.63
2019-04-06T00:32:56.744Z,22.77
2019-04-06T00:35:04.381Z,21.33
2019-04-06T00:37:11.136Z,23.27
2019-04-06T00:39:18.828Z,21.47
2019-04-06T00:41:26.094Z,22.93
2019-04-06T00:43:33.434Z,21.57
2019-04-06T00:45:40.263Z,23.50
2019-04-06T00:47:46.858Z,20.10
2019-04-06T00:49:54.948Z,23.27
2019-04-06T00:52:01.697Z,23.00
2019-04-06T00:54:08.526Z,23.57
2019-04-06T00:56:15.202Z,23.20
2019-04-06T00:58:22.098Z,20.80
2019-04-06T01:00:30.346Z,23.83
2019-04-06T01:02:38.363Z,20.73
2019-04-06T01:04:45.586Z,21.90
2019-04-06T01:06:52.811Z,26.13
2019-04-06T01:09:00.151Z,27.90
2019-04-06T01:11:08.852Z,25.80
2019-04-06T01:13:17.019Z,21.97
2019-04-06T01:15:24.206Z,24.43
2019-04-06T01:17:32.087Z,20.27
2019-04-06T01:19:38.991Z,23.87
2019-04-06T01:21:46.682Z,21.00
2019-04-06T01:23:53.693Z,24.73
2019-04-06T01:26:06.982Z,23.13
2019-04-06T01:28:08.770Z,25.00
2019-04-06T01:30:15.951Z,24.43
2019-04-06T01:32:23.780Z,28.53
2019-04-06T01:34:30.242Z,21.17
2019-04-06T01:36:37.362Z,19.20
2019-04-06T01:38:43.850Z,23.50
2019-04-06T01:40:51.833Z,20.40
2019-04-06T01:42:58.811Z,23.43
2019-04-06T01:45:07.962Z,19.57
2019-04-06T01:47:15.113Z,22.73
2019-04-06T01:49:22.334Z,21.60
2019-04-06T01:51:29.406Z,22.73
2019-04-06T01:53:38.348Z,22.90
2019-04-06T01:55:46.194Z,21.93
2019-04-06T01:57:53.303Z,22.53
2019-04-06T02:00:00.503Z,21.97
2019-04-06T02:02:09.551Z,24.90
2019-04-06T02:04:16.907Z,22.50
2019-04-06T02:06:24.295Z,31.63
2019-04-06T02:08:31.700Z,30.30
2019-04-06T02:10:38.853Z,21.33
2019-04-06T02:12:45.746Z,21.17
2019-04-06T02:14:52.906Z,27.70
2019-04-06T02:17:00.533Z,18.83
2019-04-06T02:19:07.631Z,31.17
2019-04-06T02:21:14.912Z,22.47
2019-04-06T02:23:21.773Z,27.30
2019-04-06T02:25:28.836Z,19.40
2019-04-06T02:27:36.093Z,23.07
2019-04-06T02:29:43.882Z,21.73
2019-04-06T02:31:58.718Z,22.97
2019-04-06T02:34:24.015Z,20.07
2019-04-06T02:36:32.370Z,24.63
2019-04-06T02:38:49.654Z,26.53
2019-04-06T02:41:05.011Z,30.20
2019-04-06T02:43:16.551Z,25.80
2019-04-06T02:45:23.372Z,23.67
2019-04-06T02:47:31.355Z,20.03
2019-04-06T02:49:38.306Z,19.23
2019-04-06T02:51:45.636Z,21.17
2019-04-06T02:53:52.929Z,23.00
2019-04-06T02:56:01.430Z,18.43
2019-04-06T02:58:08.683Z,19.80
2019-04-06T03:00:15.814Z,19.27
2019-04-06T03:02:23.011Z,23.73
2019-04-06T03:04:29.808Z,19.40
2019-04-06T03:06:37.332Z,21.47
2019-04-06T03:08:44.225Z,16.53
2019-04-06T03:10:52.889Z,20.13
2019-04-06T03:13:00.808Z,18.40
2019-04-06T03:15:08.211Z,25.33
2019-04-06T03:17:15.295Z,20.27
2019-04-06T03:19:22.059Z,22.13
2019-04-06T03:21:28.967Z,21.30
2019-04-06T03:23:49.602Z,22.17
2019-04-06T03:25:47.041Z,24.60
2019-04-06T03:27:54.810Z,23.47
2019-04-06T03:30:02.363Z,22.70
2019-04-06T03:32:09.681Z,21.40
2019-04-06T03:34:20.600Z,27.80
2019-04-06T03:36:25.008Z,21.07
2019-04-06T03:38:32.947Z,22.03
2019-04-06T03:40:40.338Z,23.30
2019-04-06T03:42:47.182Z,25.40
2019-04-06T03:44:54.076Z,20.80
2019-04-06T03:47:00.984Z,19.07
2019-04-06T03:49:08.188Z,24.27
2019-04-06T03:51:15.305Z,25.67
2019-04-06T03:53:22.546Z,18.27
2019-04-06T03:55:31.213Z,20.03
2019-04-06T03:57:38.459Z,18.77
2019-04-06T03:59:45.033Z,20.60
2019-04-06T04:01:52.209Z,21.37
2019-04-06T04:04:20.915Z,22.70
2019-04-06T04:06:35.240Z,24.90
2019-04-06T04:08:42.743Z,23.23
2019-04-06T04:10:49.600Z,24.10
2019-04-06T04:12:56.884Z,24.77
2019-04-06T04:15:03.695Z,22.33
2019-04-06T04:17:10.441Z,21.17
2019-04-06T04:19:18.020Z,24.83
2019-04-06T04:21:26.035Z,23.63
2019-04-06T04:23:32.889Z,22.00
2019-04-06T04:25:39.291Z,23.70
2019-04-06T04:27:47.519Z,21.57
2019-04-06T04:29:55.053Z,18.43
2019-04-06T04:32:01.806Z,18.97
2019-04-06T04:34:09.121Z,23.90
2019-04-06T04:36:16.774Z,20.23
2019-04-06T04:38:23.727Z,20.97
2019-04-06T04:40:30.262Z,21.63
2019-04-06T04:42:36.854Z,22.60
2019-04-06T04:44:43.403Z,23.63
2019-04-06T04:46:49.946Z,20.63
2019-04-06T04:48:56.962Z,27.13
2019-04-06T04:51:07.608Z,24.07
2019-04-06T04:53:14.150Z,22.03
2019-04-06T04:55:22.287Z,22.93
2019-04-06T04:57:39.618Z,25.43
2019-04-06T04:59:38.179Z,26.87
2019-04-06T05:01:44.933Z,21.07
2019-04-06T05:03:51.809Z,20.47
2019-04-06T05:06:00.151Z,28.30
2019-04-06T05:08:07.415Z,26.80
2019-04-06T05:10:16.035Z,23.17
2019-04-06T05:12:22.853Z,24.50
2019-04-06T05:15:06.303Z,20.63
2019-04-06T05:17:13.911Z,28.80
2019-04-06T05:19:21.348Z,23.13
2019-04-06T05:21:30.101Z,26.97
2019-04-06T05:23:38.197Z,19.13
2019-04-06T05:25:45.139Z,24.47
2019-04-06T05:27:57.661Z,24.27
2019-04-06T05:30:07.187Z,21.57
2019-04-06T05:32:14.477Z,21.67
2019-04-06T05:34:21.556Z,22.07
2019-04-06T05:36:31.065Z,19.43
2019-04-06T05:38:37.564Z,19.53
2019-04-06T05:40:44.414Z,18.67
2019-04-06T05:42:52.226Z,21.67
2019-04-06T05:45:00.144Z,20.53
2019-04-06T05:47:07.245Z,23.43
2019-04-06T05:49:13.991Z,25.93
2019-04-06T05:51:20.975Z,16.67
2019-04-06T05:53:27.843Z,27.43
2019-04-06T05:55:35.031Z,25.97
2019-04-06T05:57:43.193Z,19.50
2019-04-06T05:59:49.823Z,25.70
2019-04-06T06:01:56.797Z,19.50
2019-04-06T06:04:04.238Z,29.97
2019-04-06T06:06:12.594Z,25.67
2019-04-06T06:08:19.891Z,21.93
2019-04-06T06:10:28.095Z,23.00
2019-04-06T06:12:35.487Z,27.57
2019-04-06T06:14:42.568Z,28.03
2019-04-06T06:16:48.926Z,20.87
2019-04-06T06:18:58.047Z,22.47
2019-04-06T06:21:04.683Z,25.50
2019-04-06T06:23:11.949Z,20.70
2019-04-06T06:25:18.845Z,24.03
2019-04-06T06:27:26.117Z,21.13
2019-04-06T06:29:32.970Z,20.57
2019-04-06T06:31:40.518Z,23.23
2019-04-06T06:33:47.508Z,22.83
2019-04-06T06:35:55.670Z,24.67
2019-04-06T06:38:02.670Z,29.73
2019-04-06T06:40:10.116Z,26.73
2019-04-06T06:42:16.781Z,23.90
2019-04-06T06:44:23.532Z,23.37
2019-04-06T06:46:30.490Z,21.07
2019-04-06T06:48:37.626Z,28.60
2019-04-06T06:50:44.695Z,23.40
2019-04-06T06:52:51.666Z,23.13
2019-04-06T06:54:59.023Z,21.53
2019-04-06T06:57:06.034Z,20.83
2019-04-06T06:59:12.523Z,20.47
2019-04-06T07:01:19.312Z,24.03
2019-04-06T07:03:26.112Z,22.53
2019-04-06T07:05:33.233Z,20.43
2019-04-06T07:07:40.194Z,25.83
2019-04-06T07:09:47.182Z,21.83
2019-04-06T07:11:53.792Z,23.53
2019-04-06T07:14:00.615Z,26.67
2019-04-06T07:16:08.337Z,26.70
2019-04-06T07:18:15.438Z,21.50
2019-04-06T07:20:23.653Z,18.57
2019-04-06T07:22:31.497Z,23.30
2019-04-06T07:24:38.692Z,24.27
2019-04-06T07:26:46.351Z,24.03
2019-04-06T07:28:53.363Z,20.17
2019-04-06T07:31:00.219Z,20.43
2019-04-06T07:33:07.100Z,18.00
2019-04-06T07:35:15.303Z,22.27
2019-04-06T07:37:22.273Z,18.93
2019-04-06T07:39:29.593Z,21.33
2019-04-06T07:41:37.973Z,22.33
2019-04-06T07:43:44.918Z,20.87
2019-04-06T07:45:52.967Z,25.27
2019-04-06T07:48:02.329Z,22.90
2019-04-06T07:50:11.053Z,22.07
2019-04-06T07:52:18.312Z,20.63
2019-04-06T07:54:29.725Z,20.30
2019-04-06T07:56:36.512Z,20.93
2019-04-06T07:58:49.162Z,25.27
2019-04-06T08:00:52.582Z,18.23
2019-04-06T08:02:59.492Z,23.53
2019-04-06T08:05:07.327Z,17.87
2019-04-06T08:07:14.232Z,20.40
2019-04-06T08:09:21.121Z,19.17
2019-04-06T08:11:28.321Z,21.57
2019-04-06T08:13:35.151Z,23.07
2019-04-06T08:15:42.542Z,22.57
2019-04-06T08:17:49.661Z,20.30
2019-04-06T08:19:57.261Z,22.17
2019-04-06T08:22:04.325Z,19.27
2019-04-06T08:24:13.131Z,25.40
2019-04-06T08:26:20.292Z,21.30
2019-04-06T08:28:27.132Z,18.73
2019-04-06T08:30:44.683Z,20.07
2019-04-06T08:32:42.418Z,19.63
2019-04-06T08:34:51.987Z,21.67
2019-04-06T08:36:59.022Z,18.33
2019-04-06T08:39:08.225Z,17.60
2019-04-06T08:41:16.220Z,17.97
2019-04-06T08:43:23.134Z,18.20
2019-04-06T08:45:29.912Z,21.83
2019-04-06T08:47:37.075Z,17.60
2019-04-06T08:49:47.262Z,16.20
2019-04-06T08:51:54.072Z,19.23
2019-04-06T08:54:01.362Z,13.40
2019-04-06T08:56:09.759Z,17.30
2019-04-06T08:58:16.736Z,15.50
2019-04-06T09:00:23.812Z,15.63
2019-04-06T09:02:30.734Z,13.83
2019-04-06T09:04:37.875Z,13.00
2019-04-06T09:06:45.572Z,17.47
2019-04-06T09:08:54.413Z,19.67
2019-04-06T09:11:05.179Z,13.93
2019-04-06T09:13:25.584Z,18.87
2019-04-06T09:15:36.159Z,17.77
2019-04-06T09:17:45.151Z,18.07
2019-04-06T09:19:53.062Z,12.47
2019-04-06T09:22:04.122Z,14.00
2019-04-06T09:24:13.247Z,15.63
2019-04-06T09:26:20.331Z,14.10
2019-04-06T09:28:26.907Z,20.77
2019-04-06T09:30:34.329Z,17.83
2019-04-06T09:32:41.450Z,23.40
2019-04-06T09:34:49.814Z,13.40
2019-04-06T09:36:56.711Z,16.50
2019-04-06T09:39:06.970Z,13.67
2019-04-06T09:41:15.213Z,13.50
2019-04-06T09:43:23.735Z,16.57
2019-04-06T09:45:47.484Z,13.23
2019-04-06T09:48:02.522Z,16.90
2019-04-06T09:50:17.062Z,13.20
2019-04-06T09:52:26.717Z,13.77
2019-04-06T09:54:48.668Z,12.50
2019-04-06T09:57:15.032Z,13.67
2019-04-06T09:59:39.959Z,13.47
2019-04-06T10:01:47.372Z,12.73
2019-04-06T10:03:56.369Z,12.00
2019-04-06T10:06:12.623Z,9.30
2019-04-06T10:08:29.903Z,13.63
2019-04-06T10:10:39.642Z,13.27
2019-04-06T10:12:49.182Z,10.90
2019-04-06T10:14:57.683Z,14.50
2019-04-06T10:17:19.923Z,20.47
2019-04-06T10:19:53.854Z,12.53
2019-04-06T10:22:07.362Z,12.90
2019-04-06T10:24:18.743Z,14.67
2019-04-06T10:26:36.135Z,14.93
2019-04-06T10:28:50.316Z,15.67
2019-04-06T10:30:59.974Z,11.47
2019-04-06T10:33:15.635Z,14.87
2019-04-06T10:35:35.923Z,15.57
2019-04-06T10:38:01.654Z,15.90
2019-04-06T10:40:26.868Z,12.77
2019-04-06T10:42:36.203Z,12.20
2019-04-06T10:44:44.943Z,15.17
2019-04-06T10:47:05.620Z,21.97
2019-04-06T10:49:26.962Z,13.37
2019-04-06T10:51:52.316Z,19.60
2019-04-06T10:54:08.444Z,17.40
2019-04-06T10:56:20.519Z,15.07
2019-04-06T10:58:34.789Z,19.03
2019-04-06T11:00:47.056Z,14.47
2019-04-06T11:03:03.105Z,19.53
2019-04-06T11:05:20.757Z,13.17
2019-04-06T11:07:45.791Z,18.53
2019-04-06T11:09:58.841Z,17.40
2019-04-06T11:12:05.577Z,18.30
2019-04-06T11:14:27.016Z,12.43
2019-04-06T11:16:51.721Z,14.73
2019-04-06T11:18:58.511Z,11.07
2019-04-06T11:21:16.258Z,13.77
2019-04-06T11:23:33.968Z,18.97
2019-04-06T11:25:43.524Z,13.27
2019-04-06T11:27:50.400Z,16.87
2019-04-06T11:30:13.663Z,13.77
2019-04-06T11:32:22.588Z,10.83
2019-04-06T11:34:47.995Z,16.97
2019-04-06T11:36:55.049Z,12.20
2019-04-06T11:39:07.373Z,14.20
2019-04-06T11:41:34.730Z,17.27
2019-04-06T11:43:44.375Z,20.03
2019-04-06T11:45:54.316Z,17.00
2019-04-06T11:48:19.415Z,11.20
2019-04-06T11:50:26.198Z,11.90
2019-04-06T11:52:35.054Z,17.20
2019-04-06T11:54:44.562Z,11.67
2019-04-06T11:57:07.933Z,17.50
2019-04-06T11:59:34.817Z,18.60
2019-04-06T12:01:58.943Z,16.53
2019-04-06T12:04:08.328Z,16.20
2019-04-06T12:06:17.007Z,14.17
2019-04-06T12:08:42.789Z,12.00
2019-04-06T12:11:07.211Z,15.97
2019-04-06T12:13:25.640Z,19.53
2019-04-06T12:15:50.543Z,11.90
2019-04-06T12:18:17.895Z,15.57
2019-04-06T12:20:33.363Z,27.33
2019-04-06T12:22:50.547Z,15.23
2019-04-06T12:25:05.197Z,21.60
2019-04-06T12:27:22.782Z,10.93
2019-04-06T12:29:35.064Z,14.37
2019-04-06T12:31:55.887Z,17.73
2019-04-06T12:34:18.142Z,21.00
2019-04-06T12:36:28.050Z,12.83
2019-04-06T12:38:41.029Z,16.13
2019-04-06T12:40:58.890Z,13.27
2019-04-06T12:43:21.087Z,15.87
2019-04-06T12:45:46.229Z,16.87
2019-04-06T12:47:56.286Z,14.83
2019-04-06T12:50:11.028Z,19.30
2019-04-06T12:52:34.018Z,12.83
2019-04-06T12:54:50.409Z,12.53
2019-04-06T12:57:12.410Z,12.37
2019-04-06T12:59:43.770Z,15.03
2019-04-06T13:01:56.935Z,20.63
2019-04-06T13:04:21.503Z,14.83
2019-04-06T13:06:32.582Z,16.17
2019-04-06T13:08:46.595Z,15.40
2019-04-06T13:10:55.329Z,16.80
2019-04-06T13:13:07.124Z,14.00
2019-04-06T13:15:22.997Z,13.83
2019-04-06T13:17:50.657Z,15.83
2019-04-06T13:20:05.868Z,15.13
2019-04-06T13:22:31.027Z,15.50
2019-04-06T13:24:45.907Z,23.03
2019-04-06T13:26:54.557Z,16.53
2019-04-06T13:29:20.326Z,16.13
2019-04-06T13:31:37.340Z,15.37
2019-04-06T13:33:55.444Z,11.50
2019-04-06T13:36:20.796Z,13.57
2019-04-06T13:38:34.885Z,14.57
2019-04-06T13:41:00.471Z,12.80
2019-04-06T13:43:17.044Z,13.73
2019-04-06T13:45:42.554Z,17.63
2019-04-06T13:48:04.236Z,14.00
2019-04-06T13:50:15.853Z,16.27
2019-04-06T13:52:24.911Z,17.17
2019-04-06T13:54:48.712Z,19.60
2019-04-06T13:56:55.501Z,14.00
2019-04-06T13:59:12.072Z,15.90
2019-04-06T14:01:36.623Z,18.43
2019-04-06T14:03:51.994Z,13.30
2019-04-06T14:06:10.648Z,13.57
2019-04-06T14:08:24.315Z,14.13
2019-04-06T14:10:39.979Z,17.23
2019-04-06T14:12:53.684Z,14.03
2019-04-06T14:15:11.098Z,11.90
2019-04-06T14:17:19.977Z,11.97
2019-04-06T14:19:27.557Z,11.80
2019-04-06T14:21:36.699Z,13.67
2019-04-06T14:23:48.935Z,12.63
2019-04-06T14:26:05.406Z,15.80
2019-04-06T14:28:33.185Z,15.70
2019-04-06T14:30:44.657Z,29.80
2019-04-06T14:32:56.084Z,17.63
2019-04-06T14:35:04.384Z,21.83
2019-04-06T14:37:12.696Z,15.57
2019-04-06T14:39:37.284Z,16.07
2019-04-06T14:41:52.036Z,16.47
2019-04-06T14:44:09.365Z,13.83
2019-04-06T14:46:21.016Z,17.00
2019-04-06T14:48:32.584Z,17.20
2019-04-06T14:50:48.941Z,13.33
2019-04-06T14:53:01.323Z,18.33
2019-04-06T14:55:23.483Z,14.67
2019-04-06T14:57:46.509Z,20.00
2019-04-06T14:59:56.747Z,19.90
2019-04-06T15:02:11.441Z,14.83
2019-04-06T15:04:22.500Z,16.67
2019-04-06T15:06:32.782Z,15.67
2019-04-06T15:08:45.857Z,16.90
2019-04-06T15:10:58.838Z,14.90
2019-04-06T15:13:07.580Z,19.07
2019-04-06T15:15:18.900Z,14.10
2019-04-06T15:17:30.636Z,13.23
2019-04-06T15:19:42.213Z,14.10
2019-04-06T15:21:58.667Z,14.87
2019-04-06T15:24:12.667Z,11.10
2019-04-06T15:26:21.987Z,17.97
2019-04-06T15:28:28.827Z,16.60
2019-04-06T15:30:53.905Z,14.13
2019-04-06T15:33:15.702Z,13.83
2019-04-06T15:35:36.559Z,13.83
2019-04-06T15:38:02.006Z,13.13
2019-04-06T15:40:12.814Z,13.10
2019-04-06T15:42:21.731Z,14.17
2019-04-06T15:44:29.005Z,16.80
2019-04-06T15:46:41.431Z,20.70
2019-04-06T15:49:02.434Z,15.03
2019-04-06T15:51:27.838Z,17.87
2019-04-06T15:53:34.634Z,15.10
2019-04-06T15:55:44.570Z,12.90
2019-04-06T15:57:55.044Z,12.63
2019-04-06T16:00:04.247Z,16.60
2019-04-06T16:02:31.391Z,14.13
2019-04-06T16:04:40.261Z,19.83
2019-04-06T16:06:48.928Z,19.83
2019-04-06T16:09:03.518Z,14.97
2019-04-06T16:11:10.676Z,18.07
2019-04-06T16:13:22.497Z,19.07
2019-04-06T16:15:46.622Z,20.27
2019-04-06T16:18:06.600Z,15.20
2019-04-06T16:20:26.121Z,18.37
2019-04-06T16:22:50.011Z,13.30
2019-04-06T16:25:07.979Z,15.27
2019-04-06T16:27:24.934Z,17.57
2019-04-06T16:29:48.463Z,13.97
2019-04-06T16:31:57.908Z,16.80
2019-04-06T16:34:06.540Z,19.43
2019-04-06T16:36:32.857Z,19.63
2019-04-06T16:39:01.196Z,22.10
2019-04-06T16:41:12.225Z,15.97
2019-04-06T16:43:20.570Z,21.87
2019-04-06T16:45:33.655Z,17.27
2019-04-06T16:47:52.727Z,15.97
2019-04-06T16:50:08.700Z,15.37
2019-04-06T16:52:27.168Z,19.30
2019-04-06T16:54:48.352Z,14.63
2019-04-06T16:57:03.187Z,21.17
2019-04-06T16:59:28.873Z,20.50
2019-04-06T17:01:37.665Z,17.13
2019-04-06T17:03:47.678Z,18.43
2019-04-06T17:05:57.152Z,18.60
2019-04-06T17:08:23.225Z,17.90
2019-04-06T17:10:32.421Z,20.53
2019-04-06T17:12:46.144Z,18.93
2019-04-06T17:15:04.085Z,21.77
2019-04-06T17:17:13.318Z,14.77
2019-04-06T17:19:38.446Z,18.47
2019-04-06T17:21:52.120Z,24.00
2019-04-06T17:24:11.602Z,16.23
2019-04-06T17:26:26.194Z,22.17
2019-04-06T17:28:43.456Z,18.77
2019-04-06T17:31:07.784Z,24.17
2019-04-06T17:33:30.629Z,25.13
2019-04-06T17:35:56.113Z,24.20
2019-04-06T17:38:20.092Z,20.43
2019-04-06T17:40:47.225Z,23.20
2019-04-06T17:43:08.588Z,20.60
2019-04-06T17:45:17.431Z,22.67
2019-04-06T17:47:24.355Z,17.13
2019-04-06T17:49:40.370Z,18.27
2019-04-06T17:52:05.670Z,18.53
2019-04-06T17:54:29.887Z,18.87
2019-04-06T17:56:55.139Z,17.20
2019-04-06T17:59:12.064Z,19.17
2019-04-06T18:01:26.865Z,17.13
2019-04-06T18:03:40.754Z,17.57
2019-04-06T18:06:08.082Z,22.37
2019-04-06T18:08:20.203Z,18.27
2019-04-06T18:10:40.122Z,21.00
2019-04-06T18:13:08.721Z,20.27
2019-04-06T18:15:16.534Z,22.67
2019-04-06T18:17:24.788Z,16.93
2019-04-06T18:19:36.011Z,25.60
2019-04-06T18:21:44.634Z,23.10
2019-04-06T18:23:52.525Z,22.27
2019-04-06T18:26:02.950Z,26.77
2019-04-06T18:28:10.618Z,24.03
2019-04-06T18:30:18.217Z,24.73
2019-04-06T18:32:30.285Z,20.33
2019-04-06T18:34:38.760Z,26.27
2019-04-06T18:37:02.701Z,22.33
2019-04-06T18:39:11.841Z,22.87
2019-04-06T18:41:19.566Z,33.77
2019-04-06T18:43:27.463Z,26.03
2019-04-06T18:45:35.007Z,22.97
2019-04-06T18:47:46.253Z,21.53
2019-04-06T18:49:53.688Z,48.20
2019-04-06T18:52:01.065Z,27.47
2019-04-06T18:54:09.416Z,42.10
2019-04-06T18:58:32.104Z,21.57
2019-04-06T19:00:40.311Z,24.23
2019-04-06T19:02:47.929Z,25.03
2019-04-06T19:04:56.906Z,24.10
2019-04-06T19:07:05.010Z,24.13
2019-04-06T19:09:22.450Z,24.20
2019-04-06T19:11:21.342Z,24.63
2019-04-06T19:13:29.611Z,24.30
2019-04-06T19:15:37.694Z,28.57
2019-04-06T19:17:45.295Z,25.60
2019-04-06T19:19:52.796Z,25.93
2019-04-06T19:22:00.099Z,25.00
2019-04-06T19:24:07.684Z,31.50
2019-04-06T19:26:15.154Z,33.07
2019-04-06T19:28:23.045Z,28.57
2019-04-06T19:30:30.824Z,24.53
2019-04-06T19:32:38.300Z,27.60
2019-04-06T19:34:45.766Z,33.50
2019-04-06T19:36:53.622Z,23.40
2019-04-06T19:39:00.917Z,26.70
2019-04-06T19:41:10.245Z,25.60
2019-04-06T19:43:18.567Z,29.27
2019-04-06T19:45:26.009Z,36.97
2019-04-06T19:47:33.431Z,26.70
2019-04-06T19:49:40.834Z,26.83
2019-04-06T19:51:50.629Z,33.90
2019-04-06T19:53:59.483Z,27.67
2019-04-06T19:56:07.714Z,32.57
2019-04-06T19:58:15.582Z,28.77
2019-04-06T20:00:23.663Z,27.60
2019-04-06T20:02:33.450Z,27.93
2019-04-06T20:04:40.870Z,33.23
2019-04-06T20:06:49.397Z,28.17
2019-04-06T20:08:58.034Z,34.03
2019-04-06T20:11:06.343Z,25.70
2019-04-06T20:13:14.451Z,29.70
2019-04-06T20:15:22.357Z,24.73
2019-04-06T20:17:29.838Z,34.43
2019-04-06T20:19:37.739Z,31.80
2019-04-06T20:21:45.333Z,30.93
2019-04-06T20:23:53.922Z,39.17
2019-04-06T20:26:01.187Z,37.97
2019-04-06T20:28:08.854Z,31.47
2019-04-06T20:30:17.508Z,39.10
2019-04-06T20:32:25.396Z,62.63
2019-04-06T20:34:32.439Z,33.70
2019-04-06T20:36:43.070Z,41.63
2019-04-06T20:38:50.197Z,39.40
2019-04-06T20:40:58.479Z,39.47
2019-04-06T20:43:05.251Z,47.17
2019-04-06T20:45:14.161Z,34.87
2019-04-06T20:47:22.267Z,26.73
2019-04-06T20:49:29.722Z,37.03
2019-04-06T20:51:37.051Z,43.10
2019-04-06T20:53:44.531Z,31.13
2019-04-06T20:55:51.880Z,31.17
2019-04-06T20:57:59.222Z,32.13
2019-04-06T21:00:08.755Z,28.10
2019-04-06T21:02:20.873Z,41.33
2019-04-06T21:04:28.457Z,37.53
2019-04-06T21:06:37.036Z,34.87
2019-04-06T21:08:44.414Z,31.60
2019-04-06T21:10:52.109Z,32.43
2019-04-06T21:12:59.882Z,35.40
2019-04-06T21:15:19.034Z,33.90
2019-04-06T21:17:19.639Z,27.50
2019-04-06T21:19:28.161Z,29.07
2019-04-06T21:21:38.097Z,27.77
2019-04-06T21:23:48.660Z,29.20
2019-04-06T21:25:57.184Z,33.47
2019-04-06T21:28:06.230Z,31.67
2019-04-06T21:30:15.145Z,27.40
2019-04-06T21:32:23.823Z,36.40
2019-04-06T21:34:30.465Z,31.70
2019-04-06T21:38:53.863Z,34.67
2019-04-06T21:41:00.635Z,29.50
2019-04-06T21:43:09.098Z,29.53
2019-04-06T21:45:18.426Z,28.40
2019-04-06T21:47:25.941Z,33.17
2019-04-06T21:49:33.548Z,32.80
2019-04-06T21:51:40.662Z,37.67
2019-04-06T21:53:47.964Z,45.63
2019-04-06T21:56:02.661Z,36.53
2019-04-06T21:58:04.197Z,32.40
2019-04-06T22:00:26.600Z,31.43
2019-04-06T22:02:35.458Z,36.33
2019-04-06T22:04:46.884Z,40.23
2019-04-06T22:06:55.560Z,37.33
2019-04-06T22:09:08.177Z,36.00
2019-04-06T22:11:18.563Z,35.90
2019-04-06T22:13:31.938Z,80.60
2019-04-06T22:15:41.906Z,50.10
2019-04-06T22:17:50.561Z,45.57
2019-04-06T22:20:02.998Z,39.73
2019-04-06T22:22:11.787Z,50.03
2019-04-06T22:24:19.534Z,40.63
2019-04-06T22:26:27.454Z,37.00
2019-04-06T22:28:34.965Z,36.30
2019-04-06T22:30:43.163Z,48.37
2019-04-06T22:32:51.722Z,44.50
2019-04-06T22:34:58.620Z,41.80
2019-04-06T22:37:05.422Z,37.40
2019-04-06T22:39:12.498Z,48.37
2019-04-06T22:41:19.443Z,30.37
2019-04-06T22:43:27.511Z,29.30
2019-04-06T22:45:35.870Z,33.40
2019-04-06T22:47:43.140Z,29.60
2019-04-06T22:49:51.322Z,35.87
2019-04-06T22:52:00.882Z,29.20
2019-04-06T22:54:08.158Z,37.07
2019-04-06T22:56:15.050Z,30.17
2019-04-06T22:58:22.590Z,29.33
2019-04-06T23:00:41.236Z,33.33
2019-04-06T23:02:50.523Z,29.70
2019-04-06T23:05:01.701Z,30.03
2019-04-06T23:07:11.102Z,29.97
2019-04-06T23:09:17.784Z,34.33
2019-04-06T23:11:24.922Z,29.23
2019-04-06T23:13:31.806Z,25.07
2019-04-06T23:15:39.481Z,28.40
2019-04-06T23:17:46.637Z,43.37
2019-04-06T23:19:54.575Z,29.83
2019-04-06T23:22:03.602Z,30.13
2019-04-06T23:24:11.039Z,27.47
2019-04-06T23:26:17.936Z,30.67
2019-04-06T23:28:26.056Z,34.07
2019-04-06T23:30:32.911Z,29.57
2019-04-06T23:32:42.787Z,37.17
2019-04-06T23:37:07.291Z,36.63
2019-04-06T23:39:15.349Z,26.50
2019-04-06T23:41:23.255Z,23.93
2019-04-06T23:43:29.927Z,32.90
2019-04-06T23:45:36.808Z,32.13
2019-04-06T23:47:44.441Z,28.43
2019-04-06T23:49:51.794Z,32.93
2019-04-06T23:51:58.752Z,38.13
2019-04-06T23:54:05.577Z,35.90
2019-04-06T23:56:13.872Z,31.83
2019-04-06T23:58:21.001Z,31.17
